sensor_id;sensor_type;location;lat;lon;timestamp;pressure;altitude;pressure_sealevel;temperature;humidity
34925;BME280;21130;51.728;8.748;2024-03-07T00:03:02;101436.03;;;2.11;100.00
34925;BME280;21130;51.728;8.748;2024-03-07T00:05:29;101441.28;;;2.05;100.00
34925;BME280;21130;51.728;8.748;2024-03-07T00:07:55;101431.31;;;1.95;100.00
34925;BME280;21130;51.728;8.748;2024-03-07T00:10:23;101434.03;;;1.87;100.00
34925;BME280;21130;51.728;8.748;2024-03-07T00:12:50;101426.50;;;1.81;100.00
34925;BME280;21130;51.728;8.748;2024-03-07T00:15:16;101427.97;;;1.67;100.00
34925;BME280;21130;51.728;8.748;2024-03-07T00:17:43;101424.03;;;1.62;100.00
34925;BME280;21130;51.728;8.748;2024-03-07T00:20:13;101421.03;;;1.47;100.00
34925;BME280;21130;51.728;8.748;2024-03-07T00:22:40;101420.81;;;1.40;100.00
34925;BME280;21130;51.728;8.748;2024-03-07T00:25:07;101426.09;;;1.34;100.00
34925;BME280;21130;51.728;8.748;2024-03-07T00:27:34;101425.50;;;1.22;100.00
34925;BME280;21130;51.728;8.748;2024-03-07T00:30:02;101428.34;;;1.12;100.00
34925;BME280;21130;51.728;8.748;2024-03-07T00:32:30;101428.81;;;1.07;100.00
34925;BME280;21130;51.728;8.748;2024-03-07T00:35:01;101428.81;;;1.07;100.00
34925;BME280;21130;51.728;8.748;2024-03-07T00:37:29;101431.88;;;1.04;100.00
34925;BME280;21130;51.728;8.748;2024-03-07T00:39:56;101429.81;;;0.98;100.00
34925;BME280;21130;51.728;8.748;2024-03-07T00:42:22;101430.22;;;0.85;100.00
34925;BME280;21130;51.728;8.748;2024-03-07T00:44:49;101432.00;;;0.77;100.00
34925;BME280;21130;51.728;8.748;2024-03-07T00:47:16;101427.56;;;0.76;100.00
34925;BME280;21130;51.728;8.748;2024-03-07T00:49:43;101428.66;;;0.83;100.00
34925;BME280;21130;51.728;8.748;2024-03-07T00:52:10;101427.69;;;0.92;100.00
34925;BME280;21130;51.728;8.748;2024-03-07T00:54:38;101424.44;;;0.89;100.00
34925;BME280;21130;51.728;8.748;2024-03-07T00:57:04;101428.97;;;0.80;100.00
34925;BME280;21130;51.728;8.748;2024-03-07T00:59:33;101434.41;;;0.80;100.00
34925;BME280;21130;51.728;8.748;2024-03-07T01:01:59;101433.13;;;0.66;100.00
34925;BME280;21130;51.728;8.748;2024-03-07T01:04:25;101427.59;;;0.58;100.00
34925;BME280;21130;51.728;8.748;2024-03-07T01:06:58;101432.09;;;0.49;100.00
34925;BME280;21130;51.728;8.748;2024-03-07T01:09:25;101433.91;;;0.40;100.00
34925;BME280;21130;51.728;8.748;2024-03-07T01:11:55;101430.94;;;0.34;100.00
34925;BME280;21130;51.728;8.748;2024-03-07T01:14:21;101430.00;;;0.25;100.00
34925;BME280;21130;51.728;8.748;2024-03-07T01:16:48;101428.59;;;0.21;100.00
34925;BME280;21130;51.728;8.748;2024-03-07T01:19:14;101432.63;;;0.17;100.00
34925;BME280;21130;51.728;8.748;2024-03-07T01:21:41;101428.19;;;0.16;100.00
34925;BME280;21130;51.728;8.748;2024-03-07T01:24:08;101426.56;;;0.23;100.00
34925;BME280;21130;51.728;8.748;2024-03-07T01:26:35;101422.34;;;0.11;100.00
34925;BME280;21130;51.728;8.748;2024-03-07T01:29:03;101430.44;;;0.03;100.00
34925;BME280;21130;51.728;8.748;2024-03-07T01:31:29;101421.31;;;-0.06;100.00
34925;BME280;21130;51.728;8.748;2024-03-07T01:33:56;101420.19;;;-0.13;100.00
34925;BME280;21130;51.728;8.748;2024-03-07T01:36:22;101421.63;;;-0.09;100.00
34925;BME280;21130;51.728;8.748;2024-03-07T01:38:49;101418.16;;;-0.11;100.00
34925;BME280;21130;51.728;8.748;2024-03-07T01:41:16;101420.44;;;-0.07;100.00
34925;BME280;21130;51.728;8.748;2024-03-07T01:43:43;101417.31;;;-0.12;100.00
34925;BME280;21130;51.728;8.748;2024-03-07T01:46:11;101418.09;;;-0.19;100.00
34925;BME280;21130;51.728;8.748;2024-03-07T01:48:37;101420.00;;;-0.30;100.00
34925;BME280;21130;51.728;8.748;2024-03-07T01:51:05;101411.25;;;-0.33;100.00
34925;BME280;21130;51.728;8.748;2024-03-07T01:53:32;101412.41;;;-0.36;100.00
34925;BME280;21130;51.728;8.748;2024-03-07T01:56:00;101406.97;;;-0.36;100.00
34925;BME280;21130;51.728;8.748;2024-03-07T01:58:29;101407.59;;;-0.42;100.00
34925;BME280;21130;51.728;8.748;2024-03-07T02:00:56;101407.31;;;-0.49;100.00
34925;BME280;21130;51.728;8.748;2024-03-07T02:03:24;101410.94;;;-0.58;100.00
34925;BME280;21130;51.728;8.748;2024-03-07T02:05:51;101406.50;;;-0.59;100.00
34925;BME280;21130;51.728;8.748;2024-03-07T02:08:17;101403.91;;;-0.60;100.00
34925;BME280;21130;51.728;8.748;2024-03-07T02:10:45;101396.34;;;-0.67;100.00
34925;BME280;21130;51.728;8.748;2024-03-07T02:13:11;101393.47;;;-0.65;100.00
34925;BME280;21130;51.728;8.748;2024-03-07T02:15:38;101403.38;;;-0.64;100.00
34925;BME280;21130;51.728;8.748;2024-03-07T02:18:04;101398.06;;;-0.66;100.00
34925;BME280;21130;51.728;8.748;2024-03-07T02:20:32;101393.06;;;-0.70;100.00
34925;BME280;21130;51.728;8.748;2024-03-07T02:23:00;101386.28;;;-0.66;100.00
34925;BME280;21130;51.728;8.748;2024-03-07T02:25:47;101392.63;;;-0.75;100.00
34925;BME280;21130;51.728;8.748;2024-03-07T02:28:31;101391.06;;;-0.78;100.00
34925;BME280;21130;51.728;8.748;2024-03-07T02:31:17;101390.78;;;-0.75;100.00
34925;BME280;21130;51.728;8.748;2024-03-07T02:33:53;101382.88;;;-0.78;100.00
34925;BME280;21130;51.728;8.748;2024-03-07T02:36:20;101383.06;;;-0.79;100.00
34925;BME280;21130;51.728;8.748;2024-03-07T02:38:47;101382.78;;;-0.86;100.00
34925;BME280;21130;51.728;8.748;2024-03-07T02:41:14;101376.03;;;-0.82;100.00
34925;BME280;21130;51.728;8.748;2024-03-07T02:43:40;101378.66;;;-0.90;100.00
34925;BME280;21130;51.728;8.748;2024-03-07T02:46:07;101379.09;;;-0.95;100.00
34925;BME280;21130;51.728;8.748;2024-03-07T02:48:33;101376.81;;;-0.99;100.00
34925;BME280;21130;51.728;8.748;2024-03-07T02:51:00;101378.97;;;-1.03;100.00
34925;BME280;21130;51.728;8.748;2024-03-07T02:53:26;101383.31;;;-1.10;100.00
34925;BME280;21130;51.728;8.748;2024-03-07T02:55:54;101380.28;;;-1.07;100.00
34925;BME280;21130;51.728;8.748;2024-03-07T02:58:20;101380.59;;;-1.10;100.00
34925;BME280;21130;51.728;8.748;2024-03-07T03:00:47;101388.44;;;-1.07;100.00
34925;BME280;21130;51.728;8.748;2024-03-07T03:03:14;101386.88;;;-1.10;100.00
34925;BME280;21130;51.728;8.748;2024-03-07T03:05:40;101384.47;;;-1.13;100.00
34925;BME280;21130;51.728;8.748;2024-03-07T03:08:07;101379.00;;;-1.13;100.00
34925;BME280;21130;51.728;8.748;2024-03-07T03:10:35;101379.44;;;-1.17;100.00
34925;BME280;21130;51.728;8.748;2024-03-07T03:13:03;101374.13;;;-1.19;100.00
34925;BME280;21130;51.728;8.748;2024-03-07T03:15:30;101379.88;;;-1.22;100.00
34925;BME280;21130;51.728;8.748;2024-03-07T03:17:57;101379.31;;;-1.25;100.00
34925;BME280;21130;51.728;8.748;2024-03-07T03:20:24;101381.59;;;-1.31;100.00
34925;BME280;21130;51.728;8.748;2024-03-07T03:22:51;101370.16;;;-1.34;100.00
34925;BME280;21130;51.728;8.748;2024-03-07T03:25:19;101370.47;;;-1.37;100.00
34925;BME280;21130;51.728;8.748;2024-03-07T03:27:46;101372.47;;;-1.39;100.00
34925;BME280;21130;51.728;8.748;2024-03-07T03:30:14;101367.88;;;-1.39;100.00
34925;BME280;21130;51.728;8.748;2024-03-07T03:32:41;101369.59;;;-1.38;100.00
34925;BME280;21130;51.728;8.748;2024-03-07T03:35:08;101378.22;;;-1.42;100.00
34925;BME280;21130;51.728;8.748;2024-03-07T03:37:39;101376.75;;;-1.46;100.00
34925;BME280;21130;51.728;8.748;2024-03-07T03:40:06;101369.63;;;-1.47;100.00
34925;BME280;21130;51.728;8.748;2024-03-07T03:42:34;101365.03;;;-1.47;100.00
34925;BME280;21130;51.728;8.748;2024-03-07T03:45:01;101366.47;;;-1.53;100.00
34925;BME280;21130;51.728;8.748;2024-03-07T03:47:30;101377.63;;;-1.56;100.00
34925;BME280;21130;51.728;8.748;2024-03-07T03:49:56;101370.47;;;-1.57;100.00
34925;BME280;21130;51.728;8.748;2024-03-07T03:52:23;101363.59;;;-1.61;100.00
34925;BME280;21130;51.728;8.748;2024-03-07T03:54:49;101365.88;;;-1.66;100.00
34925;BME280;21130;51.728;8.748;2024-03-07T03:57:15;101352.44;;;-1.67;100.00
34925;BME280;21130;51.728;8.748;2024-03-07T03:59:43;101359.88;;;-1.69;100.00
34925;BME280;21130;51.728;8.748;2024-03-07T04:02:10;101357.47;;;-1.72;100.00
34925;BME280;21130;51.728;8.748;2024-03-07T04:04:40;101360.44;;;-1.76;100.00
34925;BME280;21130;51.728;8.748;2024-03-07T04:07:06;101355.00;;;-1.76;100.00
34925;BME280;21130;51.728;8.748;2024-03-07T04:09:59;101357.47;;;-1.82;100.00
34925;BME280;21130;51.728;8.748;2024-03-07T04:12:28;101364.19;;;-1.86;100.00
34925;BME280;21130;51.728;8.748;2024-03-07T04:14:54;101353.28;;;-1.86;100.00
34925;BME280;21130;51.728;8.748;2024-03-07T04:17:21;101354.72;;;-1.92;100.00
34925;BME280;21130;51.728;8.748;2024-03-07T04:19:49;101365.19;;;-1.97;100.00
34925;BME280;21130;51.728;8.748;2024-03-07T04:22:16;101351.47;;;-1.96;100.00
34925;BME280;21130;51.728;8.748;2024-03-07T04:24:44;101363.31;;;-1.97;100.00
34925;BME280;21130;51.728;8.748;2024-03-07T04:27:11;101356.31;;;-1.99;100.00
34925;BME280;21130;51.728;8.748;2024-03-07T04:29:37;101364.75;;;-2.02;100.00
34925;BME280;21130;51.728;8.748;2024-03-07T04:32:04;101357.88;;;-2.06;100.00
34925;BME280;21130;51.728;8.748;2024-03-07T04:34:32;101356.88;;;-2.05;100.00
34925;BME280;21130;51.728;8.748;2024-03-07T04:37:00;101356.00;;;-2.06;100.00
34925;BME280;21130;51.728;8.748;2024-03-07T04:39:27;101357.75;;;-2.05;100.00
34925;BME280;21130;51.728;8.748;2024-03-07T04:41:57;101354.44;;;-1.99;100.00
34925;BME280;21130;51.728;8.748;2024-03-07T04:44:25;101354.44;;;-1.89;100.00
34925;BME280;21130;51.728;8.748;2024-03-07T04:46:52;101353.59;;;-1.70;100.00
34925;BME280;21130;51.728;8.748;2024-03-07T04:49:21;101356.31;;;-1.70;100.00
34925;BME280;21130;51.728;8.748;2024-03-07T04:51:48;101359.28;;;-1.54;100.00
34925;BME280;21130;51.728;8.748;2024-03-07T04:54:16;101365.41;;;-1.22;100.00
34925;BME280;21130;51.728;8.748;2024-03-07T04:56:42;101356.25;;;-1.31;100.00
34925;BME280;21130;51.728;8.748;2024-03-07T04:59:09;101351.22;;;-1.26;100.00
34925;BME280;21130;51.728;8.748;2024-03-07T05:01:37;101347.47;;;-1.15;100.00
34925;BME280;21130;51.728;8.748;2024-03-07T05:04:03;101349.06;;;-1.13;100.00
34925;BME280;21130;51.728;8.748;2024-03-07T05:06:32;101354.91;;;-1.07;100.00
34925;BME280;21130;51.728;8.748;2024-03-07T05:08:59;101345.78;;;-0.89;100.00
34925;BME280;21130;51.728;8.748;2024-03-07T05:11:29;101361.38;;;-0.81;100.00
34925;BME280;21130;51.728;8.748;2024-03-07T05:13:56;101351.22;;;-0.79;100.00
34925;BME280;21130;51.728;8.748;2024-03-07T05:16:23;101351.59;;;-0.74;100.00
34925;BME280;21130;51.728;8.748;2024-03-07T05:18:50;101345.84;;;-0.71;100.00
34925;BME280;21130;51.728;8.748;2024-03-07T05:21:17;101348.97;;;-0.66;100.00
34925;BME280;21130;51.728;8.748;2024-03-07T05:24:00;101345.03;;;-0.53;100.00
34925;BME280;21130;51.728;8.748;2024-03-07T05:26:26;101348.19;;;-0.48;100.00
34925;BME280;21130;51.728;8.748;2024-03-07T05:28:54;101352.00;;;-0.41;100.00
34925;BME280;21130;51.728;8.748;2024-03-07T05:31:20;101356.31;;;-0.38;100.00
34925;BME280;21130;51.728;8.748;2024-03-07T05:33:48;101364.03;;;-0.34;100.00
34925;BME280;21130;51.728;8.748;2024-03-07T05:36:14;101363.97;;;-0.24;100.00
34925;BME280;21130;51.728;8.748;2024-03-07T05:38:40;101362.50;;;-0.18;100.00
34925;BME280;21130;51.728;8.748;2024-03-07T05:41:09;101372.63;;;-0.11;100.00
34925;BME280;21130;51.728;8.748;2024-03-07T05:43:35;101362.28;;;-0.07;100.00
34925;BME280;21130;51.728;8.748;2024-03-07T05:46:03;101359.56;;;-0.07;100.00
34925;BME280;21130;51.728;8.748;2024-03-07T05:48:32;101353.63;;;-0.03;100.00
34925;BME280;21130;51.728;8.748;2024-03-07T05:50:59;101348.59;;;0.03;100.00
34925;BME280;21130;51.728;8.748;2024-03-07T05:53:26;101357.44;;;0.05;100.00
34925;BME280;21130;51.728;8.748;2024-03-07T05:55:52;101352.56;;;0.08;100.00
34925;BME280;21130;51.728;8.748;2024-03-07T05:58:19;101353.94;;;0.12;100.00
34925;BME280;21130;51.728;8.748;2024-03-07T06:00:46;101356.75;;;0.20;100.00
34925;BME280;21130;51.728;8.748;2024-03-07T06:03:18;101355.75;;;0.21;100.00
34925;BME280;21130;51.728;8.748;2024-03-07T06:05:45;101359.41;;;0.30;100.00
34925;BME280;21130;51.728;8.748;2024-03-07T06:08:14;101361.50;;;0.36;100.00
34925;BME280;21130;51.728;8.748;2024-03-07T06:10:41;101358.06;;;0.34;100.00
34925;BME280;21130;51.728;8.748;2024-03-07T06:13:08;101355.09;;;0.46;100.00
34925;BME280;21130;51.728;8.748;2024-03-07T06:15:34;101352.19;;;0.47;100.00
34925;BME280;21130;51.728;8.748;2024-03-07T06:18:03;101357.75;;;0.55;100.00
34925;BME280;21130;51.728;8.748;2024-03-07T06:20:31;101362.09;;;0.66;100.00
34925;BME280;21130;51.728;8.748;2024-03-07T06:22:58;101359.03;;;0.69;100.00
34925;BME280;21130;51.728;8.748;2024-03-07T06:25:24;101356.72;;;0.82;100.00
34925;BME280;21130;51.728;8.748;2024-03-07T06:28:02;101358.78;;;0.80;100.00
34925;BME280;21130;51.728;8.748;2024-03-07T06:30:34;101351.81;;;0.86;100.00
34925;BME280;21130;51.728;8.748;2024-03-07T06:33:02;101353.28;;;0.98;100.00
34925;BME280;21130;51.728;8.748;2024-03-07T06:35:28;101354.16;;;1.07;100.00
34925;BME280;21130;51.728;8.748;2024-03-07T06:37:56;101355.88;;;1.08;100.00
34925;BME280;21130;51.728;8.748;2024-03-07T06:40:22;101357.06;;;1.05;100.00
34925;BME280;21130;51.728;8.748;2024-03-07T06:42:50;101351.28;;;1.08;100.00
34925;BME280;21130;51.728;8.748;2024-03-07T06:45:18;101350.78;;;1.13;100.00
34925;BME280;21130;51.728;8.748;2024-03-07T06:47:44;101360.03;;;1.20;100.00
34925;BME280;21130;51.728;8.748;2024-03-07T06:50:11;101349.53;;;1.34;100.00
34925;BME280;21130;51.728;8.748;2024-03-07T06:52:39;101348.34;;;1.36;100.00
34925;BME280;21130;51.728;8.748;2024-03-07T06:55:08;101354.34;;;1.48;100.00
34925;BME280;21130;51.728;8.748;2024-03-07T06:57:34;101348.81;;;1.66;100.00
34925;BME280;21130;51.728;8.748;2024-03-07T07:00:01;101348.97;;;1.64;100.00
34925;BME280;21130;51.728;8.748;2024-03-07T07:02:37;101342.16;;;1.77;100.00
34925;BME280;21130;51.728;8.748;2024-03-07T07:05:05;101339.44;;;1.93;100.00
34925;BME280;21130;51.728;8.748;2024-03-07T07:07:54;101336.91;;;2.08;100.00
34925;BME280;21130;51.728;8.748;2024-03-07T07:10:42;101324.94;;;2.17;100.00
34925;BME280;21130;51.728;8.748;2024-03-07T07:13:09;101331.28;;;2.34;100.00
34925;BME280;21130;51.728;8.748;2024-03-07T07:15:36;101325.97;;;2.41;100.00
34925;BME280;21130;51.728;8.748;2024-03-07T07:18:02;101321.88;;;2.45;100.00
34925;BME280;21130;51.728;8.748;2024-03-07T07:20:29;101316.72;;;2.50;100.00
34925;BME280;21130;51.728;8.748;2024-03-07T07:22:56;101321.00;;;2.60;100.00
34925;BME280;21130;51.728;8.748;2024-03-07T07:25:25;101321.84;;;2.69;100.00
34925;BME280;21130;51.728;8.748;2024-03-07T07:27:53;101317.41;;;2.76;100.00
34925;BME280;21130;51.728;8.748;2024-03-07T07:30:22;101310.66;;;2.95;100.00
34925;BME280;21130;51.728;8.748;2024-03-07T07:32:51;101320.63;;;2.96;100.00
34925;BME280;21130;51.728;8.748;2024-03-07T07:35:19;101311.50;;;3.04;100.00
34925;BME280;21130;51.728;8.748;2024-03-07T07:37:47;101311.88;;;3.01;100.00
34925;BME280;21130;51.728;8.748;2024-03-07T07:40:15;101309.22;;;3.16;100.00
34925;BME280;21130;51.728;8.748;2024-03-07T07:42:43;101304.25;;;3.19;100.00
34925;BME280;21130;51.728;8.748;2024-03-07T07:45:14;101298.19;;;3.32;100.00
34925;BME280;21130;51.728;8.748;2024-03-07T07:47:42;101304.66;;;3.47;100.00
34925;BME280;21130;51.728;8.748;2024-03-07T07:50:10;101308.75;;;3.52;100.00
34925;BME280;21130;51.728;8.748;2024-03-07T07:52:43;101304.25;;;3.59;100.00
34925;BME280;21130;51.728;8.748;2024-03-07T07:55:10;101303.22;;;3.60;100.00
34925;BME280;21130;51.728;8.748;2024-03-07T07:57:41;101291.81;;;3.71;100.00
34925;BME280;21130;51.728;8.748;2024-03-07T08:03:17;101294.00;;;3.84;100.00
34925;BME280;21130;51.728;8.748;2024-03-07T08:05:44;101297.59;;;3.84;100.00
34925;BME280;21130;51.728;8.748;2024-03-07T08:08:11;101297.69;;;3.91;100.00
34925;BME280;21130;51.728;8.748;2024-03-07T08:10:42;101293.09;;;3.92;100.00
34925;BME280;21130;51.728;8.748;2024-03-07T08:13:11;101302.16;;;3.92;100.00
34925;BME280;21130;51.728;8.748;2024-03-07T08:15:38;101299.50;;;3.84;100.00
34925;BME280;21130;51.728;8.748;2024-03-07T08:18:05;101292.50;;;3.73;100.00
34925;BME280;21130;51.728;8.748;2024-03-07T08:20:36;101305.31;;;3.81;100.00
34925;BME280;21130;51.728;8.748;2024-03-07T08:23:03;101306.00;;;3.83;100.00
34925;BME280;21130;51.728;8.748;2024-03-07T08:25:29;101304.72;;;3.94;100.00
34925;BME280;21130;51.728;8.748;2024-03-07T08:27:57;101298.56;;;3.92;100.00
34925;BME280;21130;51.728;8.748;2024-03-07T08:30:25;101306.06;;;3.98;100.00
34925;BME280;21130;51.728;8.748;2024-03-07T08:32:54;101297.78;;;4.06;100.00
34925;BME280;21130;51.728;8.748;2024-03-07T08:35:22;101296.91;;;4.05;100.00
34925;BME280;21130;51.728;8.748;2024-03-07T08:37:52;101296.00;;;4.13;100.00
34925;BME280;21130;51.728;8.748;2024-03-07T08:40:20;101292.34;;;4.21;100.00
34925;BME280;21130;51.728;8.748;2024-03-07T08:42:47;101287.59;;;4.15;100.00
34925;BME280;21130;51.728;8.748;2024-03-07T08:45:14;101284.28;;;4.19;100.00
34925;BME280;21130;51.728;8.748;2024-03-07T08:47:45;101292.72;;;4.18;100.00
34925;BME280;21130;51.728;8.748;2024-03-07T08:50:12;101284.59;;;4.24;100.00
34925;BME280;21130;51.728;8.748;2024-03-07T08:52:39;101288.66;;;4.28;100.00
34925;BME280;21130;51.728;8.748;2024-03-07T08:55:08;101285.91;;;4.28;100.00
34925;BME280;21130;51.728;8.748;2024-03-07T08:57:36;101288.78;;;4.35;100.00
34925;BME280;21130;51.728;8.748;2024-03-07T09:00:04;101288.91;;;4.42;100.00
34925;BME280;21130;51.728;8.748;2024-03-07T09:02:33;101299.16;;;4.48;100.00
34925;BME280;21130;51.728;8.748;2024-03-07T09:05:01;101286.56;;;4.53;100.00
34925;BME280;21130;51.728;8.748;2024-03-07T09:07:28;101285.31;;;4.79;100.00
34925;BME280;21130;51.728;8.748;2024-03-07T09:09:55;101285.50;;;4.92;100.00
34925;BME280;21130;51.728;8.748;2024-03-07T09:12:23;101290.22;;;5.13;100.00
34925;BME280;21130;51.728;8.748;2024-03-07T09:14:50;101283.09;;;5.34;100.00
34925;BME280;21130;51.728;8.748;2024-03-07T09:17:17;101272.06;;;5.49;100.00
34925;BME280;21130;51.728;8.748;2024-03-07T09:19:44;101269.41;;;5.55;100.00
34925;BME280;21130;51.728;8.748;2024-03-07T09:22:11;101264.53;;;5.72;100.00
34925;BME280;21130;51.728;8.748;2024-03-07T09:24:38;101261.16;;;6.35;100.00
34925;BME280;21130;51.728;8.748;2024-03-07T09:27:04;101254.63;;;6.99;100.00
34925;BME280;21130;51.728;8.748;2024-03-07T09:29:33;101251.16;;;7.79;100.00
34925;BME280;21130;51.728;8.748;2024-03-07T09:32:23;101242.88;;;7.86;100.00
34925;BME280;21130;51.728;8.748;2024-03-07T09:34:50;101249.31;;;8.20;100.00
34925;BME280;21130;51.728;8.748;2024-03-07T09:37:17;101249.50;;;9.12;100.00
34925;BME280;21130;51.728;8.748;2024-03-07T09:39:46;101243.16;;;9.56;100.00
34925;BME280;21130;51.728;8.748;2024-03-07T09:42:17;101244.47;;;9.54;100.00
34925;BME280;21130;51.728;8.748;2024-03-07T09:44:45;101240.34;;;10.01;100.00
34925;BME280;21130;51.728;8.748;2024-03-07T09:47:13;101242.28;;;10.57;100.00
34925;BME280;21130;51.728;8.748;2024-03-07T09:49:40;101245.63;;;11.10;100.00
34925;BME280;21130;51.728;8.748;2024-03-07T09:52:07;101241.16;;;11.27;100.00
34925;BME280;21130;51.728;8.748;2024-03-07T09:54:37;101246.94;;;11.25;100.00
34925;BME280;21130;51.728;8.748;2024-03-07T09:57:05;101247.91;;;10.76;100.00
34925;BME280;21130;51.728;8.748;2024-03-07T09:59:34;101248.94;;;10.25;100.00
34925;BME280;21130;51.728;8.748;2024-03-07T10:02:05;101262.94;;;9.08;100.00
34925;BME280;21130;51.728;8.748;2024-03-07T10:04:37;101258.47;;;8.27;100.00
34925;BME280;21130;51.728;8.748;2024-03-07T10:07:06;101267.81;;;8.06;100.00
34925;BME280;21130;51.728;8.748;2024-03-07T10:09:37;101266.47;;;7.82;100.00
34925;BME280;21130;51.728;8.748;2024-03-07T10:12:06;101268.22;;;7.42;100.00
34925;BME280;21130;51.728;8.748;2024-03-07T10:14:35;101266.13;;;7.02;100.00
34925;BME280;21130;51.728;8.748;2024-03-07T10:17:05;101260.00;;;6.79;100.00
34925;BME280;21130;51.728;8.748;2024-03-07T10:19:32;101266.63;;;6.84;100.00
34925;BME280;21130;51.728;8.748;2024-03-07T10:21:58;101266.53;;;6.71;100.00
34925;BME280;21130;51.728;8.748;2024-03-07T10:24:27;101258.59;;;6.61;100.00
34925;BME280;21130;51.728;8.748;2024-03-07T10:26:54;101267.03;;;6.53;100.00
34925;BME280;21130;51.728;8.748;2024-03-07T10:29:23;101265.97;;;6.54;100.00
34925;BME280;21130;51.728;8.748;2024-03-07T10:31:52;101270.56;;;6.47;100.00
34925;BME280;21130;51.728;8.748;2024-03-07T10:34:20;101264.19;;;6.40;100.00
34925;BME280;21130;51.728;8.748;2024-03-07T10:36:49;101265.78;;;6.56;100.00
34925;BME280;21130;51.728;8.748;2024-03-07T10:39:17;101256.69;;;6.62;100.00
34925;BME280;21130;51.728;8.748;2024-03-07T10:41:48;101251.25;;;6.68;100.00
34925;BME280;21130;51.728;8.748;2024-03-07T10:44:19;101253.28;;;6.88;100.00
34925;BME280;21130;51.728;8.748;2024-03-07T10:46:51;101262.50;;;7.02;100.00
34925;BME280;21130;51.728;8.748;2024-03-07T10:49:21;101252.94;;;6.98;100.00
34925;BME280;21130;51.728;8.748;2024-03-07T10:52:00;101248.91;;;7.00;100.00
34925;BME280;21130;51.728;8.748;2024-03-07T10:54:34;101254.25;;;7.08;100.00
34925;BME280;21130;51.728;8.748;2024-03-07T10:57:15;101248.38;;;7.18;100.00
34925;BME280;21130;51.728;8.748;2024-03-07T10:59:49;101240.53;;;7.22;100.00
34925;BME280;21130;51.728;8.748;2024-03-07T11:05:04;101235.91;;;7.35;100.00
34925;BME280;21130;51.728;8.748;2024-03-07T11:07:33;101231.91;;;7.38;100.00
34925;BME280;21130;51.728;8.748;2024-03-07T11:10:01;101232.31;;;7.35;100.00
34925;BME280;21130;51.728;8.748;2024-03-07T11:12:29;101237.84;;;7.35;100.00
34925;BME280;21130;51.728;8.748;2024-03-07T11:14:56;101227.81;;;7.95;100.00
34925;BME280;21130;51.728;8.748;2024-03-07T11:17:24;101230.84;;;8.47;100.00
34925;BME280;21130;51.728;8.748;2024-03-07T11:19:51;101217.84;;;8.74;100.00
34925;BME280;21130;51.728;8.748;2024-03-07T11:22:31;101219.81;;;8.40;100.00
34925;BME280;21130;51.728;8.748;2024-03-07T11:25:03;101215.50;;;8.31;100.00
34925;BME280;21130;51.728;8.748;2024-03-07T11:27:32;101204.84;;;8.01;100.00
34925;BME280;21130;51.728;8.748;2024-03-07T11:30:04;101212.31;;;8.21;100.00
34925;BME280;21130;51.728;8.748;2024-03-07T11:32:34;101206.13;;;8.32;100.00
34925;BME280;21130;51.728;8.748;2024-03-07T11:35:04;101197.19;;;8.37;100.00
34925;BME280;21130;51.728;8.748;2024-03-07T11:37:41;101195.50;;;8.36;100.00
34925;BME280;21130;51.728;8.748;2024-03-07T11:40:11;101188.06;;;8.16;100.00
34925;BME280;21130;51.728;8.748;2024-03-07T11:42:43;101186.53;;;7.87;100.00
34925;BME280;21130;51.728;8.748;2024-03-07T11:45:11;101182.28;;;7.71;100.00
34925;BME280;21130;51.728;8.748;2024-03-07T11:47:50;101183.16;;;8.12;100.00
34925;BME280;21130;51.728;8.748;2024-03-07T11:50:17;101182.94;;;8.20;100.00
34925;BME280;21130;51.728;8.748;2024-03-07T11:52:46;101174.47;;;8.08;100.00
34925;BME280;21130;51.728;8.748;2024-03-07T11:55:13;101164.66;;;8.19;100.00
34925;BME280;21130;51.728;8.748;2024-03-07T11:57:40;101171.69;;;8.28;100.00
34925;BME280;21130;51.728;8.748;2024-03-07T12:00:10;101162.63;;;8.93;100.00
34925;BME280;21130;51.728;8.748;2024-03-07T12:02:37;101152.53;;;9.63;100.00
34925;BME280;21130;51.728;8.748;2024-03-07T12:05:04;101138.16;;;9.73;100.00
34925;BME280;21130;51.728;8.748;2024-03-07T12:07:31;101148.34;;;9.47;100.00
34925;BME280;21130;51.728;8.748;2024-03-07T12:10:00;101149.06;;;8.84;100.00
34925;BME280;21130;51.728;8.748;2024-03-07T12:12:29;101138.81;;;8.92;100.00
34925;BME280;21130;51.728;8.748;2024-03-07T12:14:56;101143.97;;;8.81;100.00
34925;BME280;21130;51.728;8.748;2024-03-07T12:17:23;101135.41;;;8.90;100.00
34925;BME280;21130;51.728;8.748;2024-03-07T12:19:50;101141.19;;;8.88;100.00
34925;BME280;21130;51.728;8.748;2024-03-07T12:22:19;101134.19;;;8.72;100.00
34925;BME280;21130;51.728;8.748;2024-03-07T12:24:48;101132.25;;;8.79;100.00
34925;BME280;21130;51.728;8.748;2024-03-07T12:27:16;101124.00;;;9.18;100.00
34925;BME280;21130;51.728;8.748;2024-03-07T12:29:43;101122.66;;;9.34;100.00
34925;BME280;21130;51.728;8.748;2024-03-07T12:32:13;101121.63;;;9.28;100.00
34925;BME280;21130;51.728;8.748;2024-03-07T12:34:40;101109.38;;;9.04;100.00
34925;BME280;21130;51.728;8.748;2024-03-07T12:37:11;101116.28;;;8.81;100.00
34925;BME280;21130;51.728;8.748;2024-03-07T12:39:41;101107.59;;;8.71;100.00
34925;BME280;21130;51.728;8.748;2024-03-07T12:42:12;101106.09;;;8.75;100.00
34925;BME280;21130;51.728;8.748;2024-03-07T12:44:41;101103.75;;;8.72;100.00
34925;BME280;21130;51.728;8.748;2024-03-07T12:47:11;101106.09;;;8.75;100.00
34925;BME280;21130;51.728;8.748;2024-03-07T12:49:38;101104.25;;;8.49;100.00
34925;BME280;21130;51.728;8.748;2024-03-07T12:52:05;101101.91;;;8.46;100.00
34925;BME280;21130;51.728;8.748;2024-03-07T12:54:34;101106.34;;;8.54;100.00
34925;BME280;21130;51.728;8.748;2024-03-07T12:57:00;101103.81;;;8.39;100.00
34925;BME280;21130;51.728;8.748;2024-03-07T12:59:30;101097.66;;;8.30;100.00